Time,TemperatureF,DewpointF,PressureIn,WindDirection,WindDirectionDegrees,WindSpeedMPH,WindSpeedGustMPH,Humidity,HourlyPrecipIn,Conditions,Clouds,dailyrainin,SoftwareType,DateUTC
2013-07-01 00:01:00,69.5,69.5,29.97,SSW,198,2.5,9.5,100,0.00,,OVC110,0.00,VWS V14.01,2013-07-01 04:01:00,
2013-07-01 00:05:00,69.4,69.4,29.96,SW,233,2.5,6.7,100,0.00,,RA,0.00,VWS V14.01,2013-07-01 04:05:00,
2013-07-01 00:07:00,69.5,69.5,29.96,SW,233,2.5,3.6,100,0.00,,RA,0.00,VWS V14.01,2013-07-01 04:07:00,
2013-07-01 00:09:00,69.5,69.5,29.96,West,259,2.5,4.4,100,0.00,,RA,0.00,VWS V14.01,2013-07-01 04:09:00,
2013-07-01 00:15:00,69.5,69.5,29.97,NE,52,3.1,8.2,100,0.00,,RA,0.00,VWS V14.01,2013-07-01 04:15:00,
2013-07-01 00:19:00,69.5,69.5,29.97,South,191,4.6,5.4,100,0.00,,RA,0.00,VWS V14.01,2013-07-01 04:19:00,
2013-07-01 00:25:00,69.5,69.5,29.97,WNW,283,7.0,8.4,100,0.00,,RA,0.00,VWS V14.01,2013-07-01 04:25:00,
2013-07-01 00:31:00,69.6,69.6,29.96,SW,229,3.4,7.7,100,0.00,,RA,0.00,VWS V14.01,2013-07-01 04:31:00,
2013-07-01 00:37:00,69.5,69.5,29.96,SW,228,2.5,3.3,100,0.00,,RA,0.00,VWS V14.01,2013-07-01 04:37:00,
2013-07-01 00:43:00,69.5,69.5,29.97,WSW,250,2.5,5.3,100,0.00,,RA,0.00,VWS V14.01,2013-07-01 04:43:00,
2013-07-01 00:49:00,69.6,69.6,29.97,SSW,193,2.5,3.9,100,0.00,,RA,0.00,VWS V14.01,2013-07-01 04:49:00,
2013-07-01 00:55:00,69.6,69.6,29.97,NW,314,2.5,6.2,100,0.00,,RA,0.00,VWS V14.01,2013-07-01 04:55:00,
2013-07-01 01:01:00,69.5,69.5,29.97,WNW,287,2.5,7.7,100,0.00,,RA,0.00,VWS V14.01,2013-07-01 05:01:00,
2013-07-01 01:07:00,69.6,69.6,29.97,SSW,205,2.5,9.8,100,0.00,,OVC012,0.00,VWS V14.01,2013-07-01 05:07:00,
2013-07-01 01:13:00,69.7,69.7,29.97,WNW,283,5.0,5.1,100,0.00,,OVC012,0.00,VWS V14.01,2013-07-01 05:13:00,
2013-07-01 01:19:00,69.7,69.7,29.97,SSW,204,3.7,3.7,100,0.00,,OVC012,0.00,VWS V14.01,2013-07-01 05:19:00,
2013-07-01 01:25:00,69.6,69.6,29.97,WSW,252,2.5,6.7,100,0.00,,OVC012,0.00,VWS V14.01,2013-07-01 05:25:00,
2013-07-01 01:31:00,69.8,69.8,29.97,SW,225,2.5,7.4,100,0.00,,OVC012,0.00,VWS V14.01,2013-07-01 05:31:00,
2013-07-01 01:37:00,69.8,69.8,29.97,SSW,193,2.5,7.2,100,0.00,,OVC012,0.00,VWS V14.01,2013-07-01 05:37:00,
2013-07-01 01:43:00,70.0,70.0,29.97,NW,323,2.5,5.5,100,0.00,,-RA,0.00,VWS V14.01,2013-07-01 05:43:00,
2013-07-01 01:49:00,70.0,70.0,29.97,South,187,2.5,7.5,100,0.00,,-RA,0.00,VWS V14.01,2013-07-01 05:49:00,
2013-07-01 01:55:00,69.9,69.9,29.97,WSW,248,2.5,4.6,100,0.00,,-RA,0.00,VWS V14.01,2013-07-01 05:55:00,
2013-07-01 02:01:00,69.9,69.9,29.97,NNW,335,2.5,4.2,100,0.00,,-RA,0.00,VWS V14.01,2013-07-01 06:01:00,
2013-07-01 02:07:00,69.9,69.9,29.97,SW,229,4.6,6.6,100,0.00,,OVC110,0.00,VWS V14.01,2013-07-01 06:07:00,
2013-07-01 02:13:00,69.9,69.9,29.97,West,277,2.5,2.5,100,0.00,,OVC110,0.00,VWS V14.01,2013-07-01 06:13:00,
2013-07-01 02:19:00,69.9,69.9,29.97,WSW,250,2.5,4.6,100,0.00,,OVC110,0.00,VWS V14.01,2013-07-01 06:19:00,
2013-07-01 02:25:00,70.0,70.0,29.97,WSW,253,3.3,9.5,100,0.00,,OVC110,0.00,VWS V14.01,2013-07-01 06:25:00,
2013-07-01 02:31:00,69.9,69.9,29.97,SW,236,2.5,2.5,100,0.00,,OVC110,0.00,VWS V14.01,2013-07-01 06:31:00,
2013-07-01 02:37:00,70.0,70.0,29.97,NW,315,2.5,3.2,100,0.00,,OVC110,0.00,VWS V14.01,2013-07-01 06:37:00,
2013-07-01 02:43:00,70.0,70.0,29.97,West,259,2.5,3.9,100,0.00,,OVC110,0.00,VWS V14.01,2013-07-01 06:43:00,
2013-07-01 02:49:00,70.0,70.0,29.97,WSW,245,2.5,5.4,100,0.00,,OVC110,0.00,VWS V14.01,2013-07-01 06:49:00,
2013-07-01 02:55:00,70.0,70.0,29.97,WNW,288,2.5,5.4,100,0.00,,OVC110,0.00,VWS V14.01,2013-07-01 06:55:00,
2013-07-01 03:01:00,69.9,69.9,29.97,NW,312,2.5,6.7,100,0.00,,OVC009,0.00,VWS V14.01,2013-07-01 07:01:00,
2013-07-01 03:07:00,69.9,69.9,29.97,WSW,248,2.5,6.7,100,0.00,,OVC009,0.00,VWS V14.01,2013-07-01 07:07:00,
2013-07-01 03:13:00,69.8,69.8,29.97,WSW,248,2.5,2.5,100,0.00,,OVC009,0.00,VWS V14.01,2013-07-01 07:13:00,
2013-07-01 03:19:00,69.9,69.9,29.97,West,271,2.5,8.0,100,0.00,,OVC009,0.00,VWS V14.01,2013-07-01 07:19:00,
2013-07-01 03:25:00,69.8,69.8,29.97,NNE,14,2.5,2.5,100,0.00,,OVC009,0.00,VWS V14.01,2013-07-01 07:25:00,
2013-07-01 03:31:00,69.8,69.8,29.97,NW,321,2.5,3.4,100,0.00,,OVC009,0.00,VWS V14.01,2013-07-01 07:31:00,
2013-07-01 03:37:00,69.8,69.8,29.97,NW,321,2.5,2.5,100,0.00,,OVC009,0.00,VWS V14.01,2013-07-01 07:37:00,
2013-07-01 03:43:00,69.9,69.9,29.97,SE,146,2.5,2.5,100,0.00,,OVC009,0.00,VWS V14.01,2013-07-01 07:43:00,
2013-07-01 03:49:00,69.8,69.8,29.97,West,260,2.5,2.5,100,0.00,,OVC009,0.00,VWS V14.01,2013-07-01 07:49:00,
2013-07-01 03:55:00,69.8,69.8,29.97,ENE,68,2.5,2.5,100,0.00,,OVC009,0.00,VWS V14.01,2013-07-01 07:55:00,
2013-07-01 04:01:00,69.9,69.9,29.97,SW,221,2.5,2.5,100,0.00,,OVC027,0.00,VWS V14.01,2013-07-01 08:01:00,
2013-07-01 04:07:00,69.9,69.9,29.97,WNW,291,2.5,3.3,100,0.00,,OVC027,0.00,VWS V14.01,2013-07-01 08:07:00,
2013-07-01 04:13:00,69.8,69.8,29.97,West,264,2.5,8.6,100,0.00,,OVC025,0.00,VWS V14.01,2013-07-01 08:13:00,
2013-07-01 04:19:00,69.8,69.8,29.97,West,264,2.5,2.5,100,0.00,,OVC025,0.00,VWS V14.01,2013-07-01 08:19:00,
2013-07-01 04:25:00,69.8,69.8,29.97,West,264,2.5,2.5,100,0.00,,OVC025,0.00,VWS V14.01,2013-07-01 08:25:00,
2013-07-01 04:31:00,69.9,69.9,29.97,West,264,2.5,2.5,100,0.00,,OVC025,0.00,VWS V14.01,2013-07-01 08:31:00,
2013-07-01 04:37:00,69.9,69.9,29.98,West,266,2.5,4.4,100,0.00,,OVC025,0.00,VWS V14.01,2013-07-01 08:37:00,
2013-07-01 04:43:00,69.8,69.8,29.98,West,262,2.5,2.5,100,0.00,,OVC025,0.00,VWS V14.01,2013-07-01 08:43:00,
2013-07-01 04:49:00,69.8,69.8,29.98,West,262,2.5,2.5,100,0.00,,OVC025,0.00,VWS V14.01,2013-07-01 08:49:00,
2013-07-01 04:55:00,69.9,69.9,29.99,West,262,2.5,2.5,100,0.00,,OVC025,0.00,VWS V14.01,2013-07-01 08:55:00,
2013-07-01 05:01:00,69.9,69.9,29.99,West,262,2.5,2.5,100,0.00,,,0.00,VWS V14.01,2013-07-01 09:01:00,
2013-07-01 05:07:00,69.6,69.6,29.99,West,262,2.5,2.5,100,0.00,,,0.00,VWS V14.01,2013-07-01 09:07:00,
2013-07-01 05:13:00,69.6,69.6,30.00,NW,305,2.5,2.5,100,0.00,,,0.00,VWS V14.01,2013-07-01 09:13:00,
2013-07-01 05:19:00,69.5,69.5,29.99,SW,225,2.5,4.2,100,0.00,,OVC030,0.00,VWS V14.01,2013-07-01 09:19:00,
2013-07-01 05:25:00,69.5,69.5,30.00,WSW,249,2.5,2.5,100,0.00,,OVC030,0.00,VWS V14.01,2013-07-01 09:25:00,
2013-07-01 05:31:00,69.6,69.6,30.00,WSW,257,2.5,4.0,100,0.00,,OVC030,0.00,VWS V14.01,2013-07-01 09:31:00,
2013-07-01 05:37:00,69.6,69.6,30.00,West,276,2.5,2.5,100,0.00,,OVC030,0.00,VWS V14.01,2013-07-01 09:37:00,
2013-07-01 05:43:00,69.6,69.6,30.00,North,7,2.5,6.0,100,0.00,,OVC030,0.00,VWS V14.01,2013-07-01 09:43:00,
2013-07-01 05:49:00,69.6,69.6,30.00,North,7,2.5,2.5,100,0.00,,OVC014,0.00,VWS V14.01,2013-07-01 09:49:00,
2013-07-01 05:55:00,69.6,69.6,30.00,North,7,2.5,2.5,100,0.00,,OVC014,0.00,VWS V14.01,2013-07-01 09:55:00,
2013-07-01 06:01:00,69.7,69.7,30.00,North,7,2.5,2.5,100,0.00,,,0.00,VWS V14.01,2013-07-01 10:01:00,
2013-07-01 06:07:00,69.7,69.7,30.00,WNW,290,2.5,5.8,100,0.00,,,0.00,VWS V14.01,2013-07-01 10:07:00,
2013-07-01 06:13:00,69.7,69.7,30.00,WSW,250,2.5,3.4,100,0.00,,,0.00,VWS V14.01,2013-07-01 10:13:00,
2013-07-01 06:19:00,69.8,69.8,30.00,WSW,250,2.5,2.5,100,0.00,,,0.00,VWS V14.01,2013-07-01 10:19:00,
2013-07-01 06:25:00,70.1,70.1,30.01,WNW,295,3.5,4.4,100,0.00,,,0.00,VWS V14.01,2013-07-01 10:25:00,
2013-07-01 06:31:00,70.4,70.4,30.01,WSW,245,2.5,2.5,100,0.00,,,0.00,VWS V14.01,2013-07-01 10:31:00,
2013-07-01 06:37:00,70.5,70.5,30.01,WSW,245,2.5,2.5,100,0.00,,,0.00,VWS V14.01,2013-07-01 10:37:00,
2013-07-01 06:43:00,70.6,70.6,30.01,WSW,245,2.5,2.9,100,0.00,,,0.00,VWS V14.01,2013-07-01 10:43:00,
2013-07-01 06:49:00,71.2,71.2,30.01,WSW,245,2.5,2.5,100,0.00,,,0.00,VWS V14.01,2013-07-01 10:49:00,
2013-07-01 06:55:00,71.8,71.8,30.01,WSW,239,2.5,2.5,100,0.00,,,0.00,VWS V14.01,2013-07-01 10:55:00,
2013-07-01 07:01:00,71.4,71.4,30.01,SW,236,4.1,5.9,100,0.00,,BKN160,0.00,VWS V14.01,2013-07-01 11:01:00,
2013-07-01 07:07:00,71.4,71.4,30.01,WSW,242,3.2,6.2,100,0.00,,BKN160,0.00,VWS V14.01,2013-07-01 11:07:00,
2013-07-01 07:13:00,71.9,71.9,30.02,West,273,5.4,5.4,100,0.00,,BKN160,0.00,VWS V14.01,2013-07-01 11:13:00,
2013-07-01 07:19:00,71.4,71.4,30.02,WSW,242,6.2,9.5,100,0.00,,BKN160,0.00,VWS V14.01,2013-07-01 11:19:00,
2013-07-01 07:25:00,71.2,71.2,30.02,West,263,8.2,8.7,100,0.00,,BKN160,0.00,VWS V14.01,2013-07-01 11:25:00,
2013-07-01 07:31:00,71.1,71.1,30.02,West,273,4.2,8.0,100,0.00,,BKN160,0.00,VWS V14.01,2013-07-01 11:31:00,
2013-07-01 07:37:00,71.0,71.0,30.02,NW,326,2.5,6.3,100,0.00,,BKN160,0.00,VWS V14.01,2013-07-01 11:37:00,
2013-07-01 07:43:00,71.1,71.1,30.02,SW,231,2.5,5.4,100,0.00,,BKN160,0.00,VWS V14.01,2013-07-01 11:43:00,
2013-07-01 07:49:00,71.2,71.2,30.02,SW,224,2.5,3.0,100,0.00,,BKN160,0.00,VWS V14.01,2013-07-01 11:49:00,
2013-07-01 07:55:00,71.1,71.1,30.02,SW,229,2.5,2.5,100,0.00,,BKN160,0.00,VWS V14.01,2013-07-01 11:55:00,
2013-07-01 08:01:00,71.4,71.4,30.02,SW,229,2.5,2.5,100,0.00,,BKN160,0.00,VWS V14.01,2013-07-01 12:01:00,
2013-07-01 08:07:00,71.7,71.7,30.02,SW,229,2.5,2.5,100,0.00,,BKN160,0.00,VWS V14.01,2013-07-01 12:07:00,
2013-07-01 08:13:00,71.8,71.8,30.02,SW,214,2.5,2.5,100,0.00,,BKN160,0.00,VWS V14.01,2013-07-01 12:13:00,
2013-07-01 08:19:00,71.7,71.7,30.02,WSW,240,3.0,6.5,100,0.00,,BKN160,0.00,VWS V14.01,2013-07-01 12:19:00,
2013-07-01 08:25:00,71.7,71.7,30.02,SSW,198,2.5,5.0,100,0.00,,BKN160,0.00,VWS V14.01,2013-07-01 12:25:00,
2013-07-01 08:31:00,72.3,72.3,30.02,SSW,198,2.5,2.5,100,0.00,,BKN160,0.00,VWS V14.01,2013-07-01 12:31:00,
2013-07-01 08:37:00,71.9,71.9,30.02,SSW,198,2.5,2.5,100,0.00,,BKN160,0.00,VWS V14.01,2013-07-01 12:37:00,
2013-07-01 08:43:00,71.9,71.9,30.02,SSW,198,2.5,2.5,100,0.00,,BKN160,0.00,VWS V14.01,2013-07-01 12:43:00,
2013-07-01 08:49:00,71.8,71.8,30.03,WSW,242,2.5,3.3,100,0.00,,BKN160,0.00,VWS V14.01,2013-07-01 12:49:00,
2013-07-01 08:55:00,71.6,71.6,30.03,SSE,160,2.5,4.4,100,0.00,,BKN160,0.00,VWS V14.01,2013-07-01 12:55:00,
2013-07-01 09:01:00,71.6,71.6,30.03,SSW,194,2.5,2.5,100,0.00,,BKN160,0.00,VWS V14.01,2013-07-01 13:01:00,
2013-07-01 09:07:00,71.6,71.6,30.03,SW,233,2.5,2.5,100,0.00,,BKN160,0.00,VWS V14.01,2013-07-01 13:07:00,
2013-07-01 09:13:00,72.0,72.0,30.02,SSW,212,2.5,2.5,100,0.00,,BKN160,0.00,VWS V14.01,2013-07-01 13:13:00,
2013-07-01 09:19:00,72.3,72.3,30.03,SSW,212,2.5,2.5,100,0.00,,BKN160,0.00,VWS V14.01,2013-07-01 13:19:00,
2013-07-01 09:25:00,72.0,72.0,30.03,South,184,2.5,2.5,100,0.00,,BKN160,0.00,VWS V14.01,2013-07-01 13:25:00,
2013-07-01 09:31:00,72.0,72.0,30.03,SE,143,2.5,7.7,100,0.00,,BKN160,0.00,VWS V14.01,2013-07-01 13:31:00,
2013-07-01 09:37:00,71.8,71.8,30.03,South,179,2.5,7.9,100,0.00,,BKN160,0.00,VWS V14.01,2013-07-01 13:37:00,
2013-07-01 09:43:00,71.8,71.8,30.03,South,179,2.5,2.5,100,0.00,,BKN160,0.00,VWS V14.01,2013-07-01 13:43:00,
2013-07-01 09:49:00,71.4,71.4,30.03,South,179,2.5,2.5,100,0.00,,BKN160,0.00,VWS V14.01,2013-07-01 13:49:00,
2013-07-01 09:55:00,71.2,71.2,30.04,South,179,2.5,2.5,100,0.00,,BKN160,0.00,VWS V14.01,2013-07-01 13:55:00,
2013-07-01 10:01:00,71.6,71.6,30.04,South,188,3.5,3.5,100,0.00,,OVC100,0.00,VWS V14.01,2013-07-01 14:01:00,
2013-07-01 10:07:00,71.9,71.9,30.04,SSW,197,2.5,3.2,100,0.00,,OVC100,0.00,VWS V14.01,2013-07-01 14:07:00,
2013-07-01 10:13:00,71.9,71.9,30.03,SSW,204,2.5,4.2,100,0.00,,OVC100,0.00,VWS V14.01,2013-07-01 14:13:00,
2013-07-01 10:19:00,72.1,72.1,30.03,South,176,2.5,2.5,100,0.00,,OVC100,0.00,VWS V14.01,2013-07-01 14:19:00,
2013-07-01 10:25:00,72.6,72.6,30.03,SW,219,5.5,7.0,100,0.00,,OVC100,0.00,VWS V14.01,2013-07-01 14:25:00,
2013-07-01 10:31:00,72.7,72.7,30.03,SE,143,2.5,3.6,100,0.00,,OVC130,0.00,VWS V14.01,2013-07-01 14:31:00,
2013-07-01 10:37:00,72.5,72.5,30.04,South,184,4.3,6.9,100,0.00,,OVC130,0.00,VWS V14.01,2013-07-01 14:37:00,
2013-07-01 10:43:00,72.5,72.5,30.04,WSW,239,2.5,4.3,100,0.00,,OVC130,0.00,VWS V14.01,2013-07-01 14:43:00,
2013-07-01 10:49:00,72.7,72.7,30.04,SSE,160,2.5,6.0,100,0.00,,OVC130,0.00,VWS V14.01,2013-07-01 14:49:00,
2013-07-01 10:55:00,73.0,73.0,30.03,South,177,2.5,6.8,100,0.00,,OVC130,0.00,VWS V14.01,2013-07-01 14:55:00,
2013-07-01 11:01:00,74.9,74.9,30.03,SSE,167,2.5,4.0,100,0.00,,-RA,0.00,VWS V14.01,2013-07-01 15:01:00,
2013-07-01 11:07:00,76.9,76.9,30.03,SSE,167,2.5,2.5,100,0.00,,-RA,0.00,VWS V14.01,2013-07-01 15:07:00,
2013-07-01 11:13:00,76.0,76.0,30.03,ESE,103,2.5,5.4,100,0.00,,OVC049,0.00,VWS V14.01,2013-07-01 15:13:00,
2013-07-01 11:19:00,74.5,74.5,30.03,SSE,166,2.5,5.4,100,0.00,,OVC049,0.00,VWS V14.01,2013-07-01 15:19:00,
2013-07-01 11:25:00,74.2,74.2,30.03,South,169,2.5,6.7,100,0.00,,OVC049,0.00,VWS V14.01,2013-07-01 15:25:00,
2013-07-01 11:31:00,74.9,74.9,30.03,SW,214,4.5,6.7,100,0.00,,OVC049,0.00,VWS V14.01,2013-07-01 15:31:00,
2013-07-01 11:37:00,75.4,75.4,30.03,SE,146,2.5,4.3,100,0.00,,OVC049,0.00,VWS V14.01,2013-07-01 15:37:00,
2013-07-01 11:43:00,78.0,78.0,30.04,ESE,122,4.2,5.9,100,0.00,,OVC049,0.00,VWS V14.01,2013-07-01 15:43:00,
2013-07-01 11:49:00,77.4,77.4,30.03,WNW,301,2.5,6.9,100,0.00,,OVC026,0.00,VWS V14.01,2013-07-01 15:49:00,
2013-07-01 11:55:00,75.9,75.9,30.03,SW,215,3.9,5.8,100,0.00,,OVC026,0.00,VWS V14.01,2013-07-01 15:55:00,
2013-07-01 12:01:00,75.0,75.0,30.03,WNW,290,4.6,7.0,100,0.00,,OVC025,0.00,VWS V14.01,2013-07-01 16:01:00,
2013-07-01 12:07:00,74.4,74.4,30.04,West,266,6.8,8.4,100,0.00,,OVC025,0.00,VWS V14.01,2013-07-01 16:07:00,
2013-07-01 12:13:00,74.6,74.6,30.04,WNW,302,3.1,6.7,100,0.00,,OVC025,0.00,VWS V14.01,2013-07-01 16:13:00,
2013-07-01 12:19:00,75.4,75.4,30.03,NNW,340,2.5,5.7,100,0.00,,OVC025,0.00,VWS V14.01,2013-07-01 16:19:00,
2013-07-01 12:25:00,75.7,75.7,30.04,WSW,257,2.5,6.1,100,0.00,,OVC025,0.00,VWS V14.01,2013-07-01 16:25:00,
2013-07-01 12:31:00,75.4,75.4,30.04,South,187,2.5,5.5,100,0.00,,OVC025,0.00,VWS V14.01,2013-07-01 16:31:00,
2013-07-01 12:37:00,75.7,75.7,30.04,WNW,291,4.6,5.8,100,0.00,,BKN035,0.00,VWS V14.01,2013-07-01 16:37:00,
2013-07-01 12:43:00,76.2,76.2,30.04,SSW,201,2.5,5.3,100,0.00,,BKN035,0.00,VWS V14.01,2013-07-01 16:43:00,
2013-07-01 12:49:00,75.6,75.6,30.04,NW,318,4.7,7.3,100,0.00,,BKN035,0.00,VWS V14.01,2013-07-01 16:49:00,
2013-07-01 12:55:00,77.1,77.1,30.04,West,269,4.2,6.2,100,0.00,,BKN035,0.00,VWS V14.01,2013-07-01 16:55:00,
2013-07-01 13:01:00,77.0,77.0,30.04,SW,225,6.0,7.6,100,0.00,,BKN035,0.00,VWS V14.01,2013-07-01 17:01:00,
2013-07-01 13:07:00,77.5,77.5,30.03,WSW,238,2.5,8.3,100,0.00,,BKN150,0.00,VWS V14.01,2013-07-01 17:07:00,
2013-07-01 13:13:00,77.7,77.7,30.03,South,186,3.4,6.8,100,0.00,,BKN150,0.00,VWS V14.01,2013-07-01 17:13:00,
2013-07-01 13:19:00,77.4,77.4,30.04,NW,312,3.9,7.0,100,0.00,,BKN150,0.00,VWS V14.01,2013-07-01 17:19:00,
2013-07-01 13:25:00,78.7,78.7,30.04,WSW,238,5.9,7.4,100,0.00,,BKN150,0.00,VWS V14.01,2013-07-01 17:25:00,
2013-07-01 13:31:00,78.4,78.4,30.04,SW,222,6.7,9.4,100,0.00,,BKN150,0.00,VWS V14.01,2013-07-01 17:31:00,
2013-07-01 13:37:00,77.8,77.8,30.04,WSW,250,4.4,8.9,100,0.00,,BKN150,0.00,VWS V14.01,2013-07-01 17:37:00,
2013-07-01 13:43:00,80.1,80.1,30.03,SW,229,8.4,8.8,100,0.00,,BKN150,0.00,VWS V14.01,2013-07-01 17:43:00,
2013-07-01 13:49:00,78.9,78.9,30.03,NNW,347,3.9,6.3,100,0.00,,BKN150,0.00,VWS V14.01,2013-07-01 17:49:00,
2013-07-01 13:55:00,78.4,78.4,30.03,WNW,283,4.5,8.2,100,0.00,,BKN150,0.00,VWS V14.01,2013-07-01 17:55:00,
2013-07-01 14:01:00,78.4,78.4,30.03,WNW,287,6.0,8.0,100,0.00,,BKN170,0.00,VWS V14.01,2013-07-01 18:01:00,
2013-07-01 14:07:00,79.9,79.8,30.03,West,262,5.2,10.2,100,0.00,,BKN170,0.00,VWS V14.01,2013-07-01 18:07:00,
2013-07-01 14:13:00,80.3,80.1,30.03,WSW,256,8.5,8.8,99,0.00,,BKN170,0.00,VWS V14.01,2013-07-01 18:13:00,
2013-07-01 14:19:00,79.6,79.6,30.03,WNW,283,7.9,8.2,100,0.00,,BKN170,0.00,VWS V14.01,2013-07-01 18:19:00,
2013-07-01 14:25:00,79.2,79.2,30.03,South,191,5.2,9.8,100,0.00,,BKN170,0.00,VWS V14.01,2013-07-01 18:25:00,
2013-07-01 14:31:00,79.0,79.0,30.02,SW,224,2.9,7.0,100,0.00,,BKN170,0.00,VWS V14.01,2013-07-01 18:31:00,
2013-07-01 14:37:00,80.6,80.0,30.02,WSW,252,4.6,8.8,98,0.00,,BKN170,0.00,VWS V14.01,2013-07-01 18:37:00,
2013-07-01 14:43:00,79.4,78.7,30.02,West,278,4.5,11.7,98,0.00,,BKN170,0.00,VWS V14.01,2013-07-01 18:43:00,
2013-07-01 14:49:00,80.0,79.3,30.02,SSW,200,5.8,8.8,98,0.00,,BKN170,0.00,VWS V14.01,2013-07-01 18:49:00,
2013-07-01 14:55:00,79.7,79.1,30.03,WNW,292,6.3,8.3,98,0.00,,BKN170,0.00,VWS V14.01,2013-07-01 18:55:00,
2013-07-01 15:01:00,80.1,79.2,30.02,North,1,7.3,14.7,97,0.00,,BKN043,0.00,VWS V14.01,2013-07-01 19:01:00,
2013-07-01 15:07:00,79.3,78.0,30.02,West,276,5.3,13.9,96,0.00,,BKN043,0.00,VWS V14.01,2013-07-01 19:07:00,
2013-07-01 15:13:00,80.4,79.3,30.02,WSW,248,4.4,8.2,96,0.00,,BKN043,0.00,VWS V14.01,2013-07-01 19:13:00,
2013-07-01 15:19:00,80.5,79.3,30.02,WSW,255,4.9,15.9,96,0.00,,BKN043,0.00,VWS V14.01,2013-07-01 19:19:00,
2013-07-01 15:25:00,80.4,79.4,30.02,NW,314,3.7,6.8,97,0.00,,BKN043,0.00,VWS V14.01,2013-07-01 19:25:00,
2013-07-01 15:31:00,80.6,79.3,30.02,SW,235,10.3,18.2,96,0.00,,BKN043,0.00,VWS V14.01,2013-07-01 19:31:00,
2013-07-01 15:37:00,82.2,78.9,30.02,South,173,3.1,12.1,90,0.00,,BKN043,0.00,VWS V14.01,2013-07-01 19:37:00,
2013-07-01 15:43:00,81.5,78.7,30.02,WSW,255,12.5,13.4,91,0.00,,BKN043,0.00,VWS V14.01,2013-07-01 19:43:00,
2013-07-01 15:49:00,80.9,79.3,30.02,WSW,257,9.1,9.5,95,0.00,,BKN043,0.00,VWS V14.01,2013-07-01 19:49:00,
2013-07-01 15:55:00,80.7,78.6,30.02,WNW,287,11.0,22.0,93,0.00,,BKN043,0.00,VWS V14.01,2013-07-01 19:55:00,
2013-07-01 16:01:00,80.4,79.0,30.02,North,357,11.7,12.6,96,0.00,,BKN085,0.00,VWS V14.01,2013-07-01 20:01:00,
2013-07-01 16:07:00,79.4,78.1,30.02,NW,308,5.2,13.4,96,0.00,,BKN085,0.00,VWS V14.01,2013-07-01 20:07:00,
2013-07-01 16:13:00,79.6,78.2,30.02,SW,222,3.9,13.4,96,0.00,,BKN085,0.00,VWS V14.01,2013-07-01 20:13:00,
2013-07-01 16:19:00,79.3,78.6,30.02,West,263,8.8,16.0,98,0.00,,BKN085,0.00,VWS V14.01,2013-07-01 20:19:00,
2013-07-01 16:25:00,79.4,78.6,30.02,WNW,284,8.6,9.9,97,0.00,,BKN085,0.00,VWS V14.01,2013-07-01 20:25:00,
2013-07-01 16:31:00,79.5,79.1,30.03,North,359,5.9,8.5,99,0.00,,BKN085,0.00,VWS V14.01,2013-07-01 20:31:00,
2013-07-01 16:37:00,79.7,79.0,30.03,SW,222,6.7,11.3,98,0.00,,BKN085,0.00,VWS V14.01,2013-07-01 20:37:00,
2013-07-01 16:43:00,79.3,78.5,30.03,WSW,242,7.5,10.3,97,0.00,,BKN085,0.00,VWS V14.01,2013-07-01 20:43:00,
2013-07-01 16:49:00,79.3,78.6,30.03,West,271,6.8,9.3,98,0.00,,BKN085,0.00,VWS V14.01,2013-07-01 20:49:00,
2013-07-01 16:55:00,79.5,78.9,30.03,SSW,195,7.3,8.6,98,0.00,,BKN085,0.00,VWS V14.01,2013-07-01 20:55:00,
2013-07-01 17:01:00,78.9,78.4,30.03,WNW,283,5.6,11.1,98,0.00,,SCT042,0.00,VWS V14.01,2013-07-01 21:01:00,
2013-07-01 17:07:00,78.9,78.6,30.03,West,281,5.3,7.0,99,0.00,,SCT042,0.00,VWS V14.01,2013-07-01 21:07:00,
2013-07-01 17:13:00,79.6,79.1,30.03,West,259,7.8,9.5,98,0.00,,SCT042,0.00,VWS V14.01,2013-07-01 21:13:00,
2013-07-01 17:19:00,78.7,78.7,30.03,NNE,30,3.2,9.6,100,0.00,,SCT042,0.00,VWS V14.01,2013-07-01 21:19:00,
2013-07-01 17:25:00,78.3,78.3,30.04,SSW,198,3.5,5.4,100,0.00,,SCT042,0.00,VWS V14.01,2013-07-01 21:25:00,
2013-07-01 17:31:00,78.7,78.7,30.04,West,274,5.2,11.1,100,0.00,,SCT042,0.00,VWS V14.01,2013-07-01 21:31:00,
2013-07-01 17:37:00,78.0,78.0,30.04,NNW,332,4.7,10.5,100,0.00,,SCT042,0.00,VWS V14.01,2013-07-01 21:37:00,
2013-07-01 17:43:00,77.2,77.2,30.04,West,266,6.2,9.1,100,0.00,,SCT042,0.00,VWS V14.01,2013-07-01 21:43:00,
2013-07-01 17:49:00,76.8,76.8,30.04,NW,312,4.1,13.4,100,0.00,,SCT042,0.00,VWS V14.01,2013-07-01 21:49:00,
2013-07-01 17:55:00,76.3,76.3,30.05,NW,316,6.2,7.9,100,0.00,,SCT042,0.00,VWS V14.01,2013-07-01 21:55:00,
2013-07-01 18:01:00,76.2,76.2,30.05,West,267,7.5,7.5,100,0.00,,-RA,0.00,VWS V14.01,2013-07-01 22:01:00,
2013-07-01 18:07:00,76.0,76.0,30.05,WSW,239,3.8,7.8,100,0.00,,-RA,0.00,VWS V14.01,2013-07-01 22:07:00,
2013-07-01 18:13:00,75.2,75.2,30.05,North,7,2.5,4.1,100,0.00,,-RA,0.00,VWS V14.01,2013-07-01 22:13:00,
2013-07-01 18:19:00,74.9,74.9,30.05,SSW,198,5.9,9.6,100,0.00,,-RA,0.00,VWS V14.01,2013-07-01 22:19:00,
2013-07-01 18:25:00,74.9,74.9,30.04,WSW,256,4.1,9.5,100,0.00,,-RA,0.00,VWS V14.01,2013-07-01 22:25:00,
2013-07-01 18:31:00,74.6,74.6,30.04,WSW,256,3.2,7.5,100,0.00,,-RA,0.00,VWS V14.01,2013-07-01 22:31:00,
2013-07-01 18:37:00,74.2,74.2,30.04,SSW,208,2.5,5.3,100,0.00,,-RA,0.00,VWS V14.01,2013-07-01 22:37:00,
2013-07-01 18:43:00,74.0,74.0,30.05,SW,218,4.0,6.0,100,0.00,,-RA,0.00,VWS V14.01,2013-07-01 22:43:00,
2013-07-01 18:49:00,73.8,73.8,30.04,SW,226,6.8,6.8,100,0.00,,-RA,0.00,VWS V14.01,2013-07-01 22:49:00,
2013-07-01 18:55:00,73.5,73.5,30.04,West,260,3.2,6.8,100,0.00,,-RA,0.00,VWS V14.01,2013-07-01 22:55:00,
2013-07-01 19:01:00,73.3,73.3,30.05,WSW,250,4.5,5.9,100,0.00,,-RA,0.00,VWS V14.01,2013-07-01 23:01:00,
2013-07-01 19:07:00,73.1,73.1,30.05,West,278,4.6,8.0,100,0.00,,OVC100,0.00,VWS V14.01,2013-07-01 23:07:00,
2013-07-01 19:13:00,73.0,73.0,30.05,NW,305,4.6,7.7,100,0.00,,OVC100,0.00,VWS V14.01,2013-07-01 23:13:00,
2013-07-01 19:19:00,73.0,73.0,30.05,SSW,201,4.2,7.5,100,0.00,,OVC100,0.00,VWS V14.01,2013-07-01 23:19:00,
2013-07-01 19:25:00,72.7,72.7,30.05,West,281,4.0,6.2,100,0.00,,OVC100,0.00,VWS V14.01,2013-07-01 23:25:00,
2013-07-01 19:31:00,72.8,72.8,30.06,West,276,4.1,7.0,100,0.00,,OVC100,0.00,VWS V14.01,2013-07-01 23:31:00,
2013-07-01 19:37:00,72.7,72.7,30.06,SW,214,3.8,3.8,100,0.00,,OVC100,0.00,VWS V14.01,2013-07-01 23:37:00,
2013-07-01 19:43:00,72.5,72.5,30.06,SW,225,2.5,6.8,100,0.00,,OVC100,0.00,VWS V14.01,2013-07-01 23:43:00,
2013-07-01 19:49:00,72.3,72.3,30.06,SW,222,4.2,6.8,100,0.00,,OVC100,0.00,VWS V14.01,2013-07-01 23:49:00,
2013-07-01 19:55:00,72.2,72.2,30.06,West,278,6.1,7.2,100,0.00,,OVC100,0.00,VWS V14.01,2013-07-01 23:55:00,
2013-07-01 20:01:00,72.0,72.0,30.06,West,276,4.9,8.7,100,0.00,,BKN110,0.00,VWS V14.01,2013-07-02 00:01:00,
2013-07-01 20:07:00,71.8,71.8,30.07,West,277,5.0,6.0,100,0.00,,BKN110,0.00,VWS V14.01,2013-07-02 00:07:00,
2013-07-01 20:13:00,71.8,71.8,30.07,SW,236,3.1,8.5,100,0.00,,BKN110,0.00,VWS V14.01,2013-07-02 00:13:00,
2013-07-01 20:19:00,71.7,71.7,30.08,North,350,2.5,6.0,100,0.00,,BKN110,0.00,VWS V14.01,2013-07-02 00:19:00,
2013-07-01 20:25:00,71.7,71.7,30.08,NW,319,2.5,2.9,100,0.00,,BKN110,0.00,VWS V14.01,2013-07-02 00:25:00,
2013-07-01 20:31:00,71.6,71.6,30.08,West,266,3.0,6.1,100,0.00,,BKN110,0.00,VWS V14.01,2013-07-02 00:31:00,
2013-07-01 20:37:00,71.6,71.6,30.08,West,278,3.7,7.5,100,0.00,,BKN110,0.00,VWS V14.01,2013-07-02 00:37:00,
2013-07-01 20:43:00,71.5,71.5,30.08,WSW,256,2.5,2.5,100,0.00,,BKN110,0.00,VWS V14.01,2013-07-02 00:43:00,
2013-07-01 20:49:00,71.5,71.5,30.08,SSW,212,4.0,6.7,100,0.00,,OVC085,0.00,VWS V14.01,2013-07-02 00:49:00,
2013-07-01 20:55:00,71.5,71.5,30.09,WSW,242,3.1,3.8,100,0.00,,OVC085,0.00,VWS V14.01,2013-07-02 00:55:00,
2013-07-01 21:01:00,71.6,71.6,30.09,West,259,5.4,7.1,100,0.00,,OVC070,0.00,VWS V14.01,2013-07-02 01:01:00,
2013-07-01 21:07:00,71.7,71.7,30.09,West,260,4.9,6.4,100,0.00,,OVC070,0.00,VWS V14.01,2013-07-02 01:07:00,
2013-07-01 21:13:00,71.5,71.5,30.10,WNW,288,10.6,10.8,100,0.00,,OVC070,0.00,VWS V14.01,2013-07-02 01:13:00,
2013-07-01 21:19:00,71.5,71.5,30.10,NNE,31,7.0,12.1,100,0.00,,OVC070,0.00,VWS V14.01,2013-07-02 01:19:00,
2013-07-01 21:25:00,71.6,71.6,30.10,SW,222,6.2,13.2,100,0.00,,OVC070,0.00,VWS V14.01,2013-07-02 01:25:00,
2013-07-01 21:31:00,71.7,71.7,30.10,NNW,328,7.8,9.6,100,0.00,,OVC070,0.00,VWS V14.01,2013-07-02 01:31:00,
2013-07-01 21:37:00,71.8,71.8,30.11,NW,304,2.5,9.7,100,0.00,,OVC070,0.00,VWS V14.01,2013-07-02 01:37:00,
2013-07-01 21:43:00,71.7,71.7,30.11,West,273,6.3,8.8,100,0.00,,OVC070,0.00,VWS V14.01,2013-07-02 01:43:00,
2013-07-01 21:49:00,71.6,71.6,30.11,North,1,2.5,7.8,100,0.00,,OVC070,0.00,VWS V14.01,2013-07-02 01:49:00,
2013-07-01 21:55:00,71.6,71.6,30.11,West,269,4.6,4.7,100,0.00,,OVC070,0.00,VWS V14.01,2013-07-02 01:55:00,
2013-07-01 22:01:00,71.7,71.7,30.11,SW,214,2.5,6.4,100,0.00,,OVC011,0.00,VWS V14.01,2013-07-02 02:01:00,
2013-07-01 22:07:00,71.7,71.7,30.11,SE,125,4.3,7.8,100,0.00,,OVC011,0.00,VWS V14.01,2013-07-02 02:07:00,
2013-07-01 22:13:00,71.9,71.9,30.11,West,281,5.5,9.1,100,0.00,,OVC011,0.00,VWS V14.01,2013-07-02 02:13:00,
2013-07-01 22:19:00,71.6,71.6,30.10,South,176,3.9,6.0,100,0.00,,OVC011,0.00,VWS V14.01,2013-07-02 02:19:00,
2013-07-01 22:25:00,71.2,71.2,30.10,SSW,202,5.4,8.3,100,0.00,,OVC011,0.00,VWS V14.01,2013-07-02 02:25:00,
2013-07-01 22:31:00,70.9,70.9,30.10,WSW,245,6.2,6.2,100,0.00,,OVC011,0.00,VWS V14.01,2013-07-02 02:31:00,
2013-07-01 22:37:00,71.0,71.0,30.10,SSW,208,2.5,8.4,100,0.00,,OVC011,0.00,VWS V14.01,2013-07-02 02:37:00,
2013-07-01 22:43:00,70.9,70.9,30.10,SSW,197,2.5,5.8,100,0.00,,OVC011,0.00,VWS V14.01,2013-07-02 02:43:00,
2013-07-01 22:49:00,70.8,70.8,30.10,SW,219,4.9,7.8,100,0.00,,OVC011,0.00,VWS V14.01,2013-07-02 02:49:00,
2013-07-01 22:55:00,70.8,70.8,30.10,SW,236,2.5,9.1,100,0.00,,OVC011,0.00,VWS V14.01,2013-07-02 02:55:00,
2013-07-01 23:01:00,70.9,70.9,30.11,West,262,2.5,3.4,100,0.00,,OVC070,0.00,VWS V14.01,2013-07-02 03:01:00,
2013-07-01 23:07:00,70.8,70.8,30.10,WNW,290,3.1,4.4,100,0.00,,OVC070,0.00,VWS V14.01,2013-07-02 03:07:00,
2013-07-01 23:13:00,70.8,70.8,30.10,WNW,300,3.7,5.6,100,0.00,,OVC070,0.00,VWS V14.01,2013-07-02 03:13:00,
2013-07-01 23:19:00,70.8,70.8,30.10,West,277,3.1,4.6,100,0.00,,OVC070,0.00,VWS V14.01,2013-07-02 03:19:00,
2013-07-01 23:25:00,70.8,70.8,30.10,NW,325,5.3,8.8,100,0.00,,OVC070,0.00,VWS V14.01,2013-07-02 03:25:00,
2013-07-01 23:31:00,70.8,70.8,30.10,East,82,4.4,5.5,100,0.00,,OVC070,0.00,VWS V14.01,2013-07-02 03:31:00,
2013-07-01 23:37:00,70.9,70.9,30.10,WNW,302,3.9,8.3,100,0.00,,OVC070,0.00,VWS V14.01,2013-07-02 03:37:00,
2013-07-01 23:43:00,70.9,70.9,30.10,West,276,3.7,5.3,100,0.00,,OVC070,0.00,VWS V14.01,2013-07-02 03:43:00,
2013-07-01 23:49:00,70.9,70.9,30.11,NNE,18,2.5,5.2,100,0.00,,OVC070,0.00,VWS V14.01,2013-07-02 03:49:00,
2013-07-01 23:55:00,70.9,70.9,30.11,WSW,242,2.5,8.1,100,0.00,,OVC070,0.00,VWS V14.01,2013-07-02 03:55:00,